Time;durP1;ratioP1;P1;durP2;ratioP2;P2;SDS_P1;SDS_P2;PMS_P1;PMS_P2;Temp;Humidity;BMP_temperature;BMP_pressure;BME280_temperature;BME280_humidity;BME280_pressure;Samples;Min_cycle;Max_cycle;Signal;HPM_P1;HPM_P2
2021/08/24 00:01:52;;;;;;;13.13;3.60;;;;;;;13.02;100.00;102356.81;7365687;19;20399;-55
2021/08/24 00:04:22;;;;;;;8.00;3.30;;;;;;;13.05;100.00;102361.28;7396862;19;20398;-57
2021/08/24 00:06:51;;;;;;;5.87;3.40;;;;;;;13.05;100.00;102354.44;7387260;19;20423;-54
2021/08/24 00:09:23;;;;;;;12.90;3.40;;;;;;;13.01;100.00;102365.41;7396477;19;20460;-54
2021/08/24 00:11:53;;;;;;;8.23;3.07;;;;;;;12.94;100.00;102360.69;7387405;19;20456;-55
2021/08/24 00:14:22;;;;;;;5.33;3.90;;;;;;;12.83;100.00;102355.75;7397605;19;20396;-54
2021/08/24 00:16:52;;;;;;;4.33;3.33;;;;;;;12.85;100.00;102362.72;7369540;19;20475;-55
2021/08/24 00:19:21;;;;;;;8.57;3.37;;;;;;;12.90;100.00;102369.06;7397719;19;20394;-56
2021/08/24 00:21:51;;;;;;;5.70;3.40;;;;;;;12.80;100.00;102362.47;7389584;19;20437;-57
2021/08/24 00:24:23;;;;;;;7.10;3.53;;;;;;;12.74;100.00;102363.00;7397445;19;20460;-54
2021/08/24 00:26:53;;;;;;;9.43;3.27;;;;;;;12.71;100.00;102377.47;7389784;19;20487;-56
2021/08/24 00:29:22;;;;;;;5.43;2.93;;;;;;;12.68;100.00;102375.59;7398611;19;20457;-56
2021/08/24 00:31:53;;;;;;;6.33;3.20;;;;;;;12.74;100.00;102378.56;7384539;19;20920;-54
2021/08/24 00:34:22;;;;;;;7.97;3.90;;;;;;;12.71;100.00;102388.72;7397741;19;20376;-52
2021/08/24 00:36:52;;;;;;;4.80;3.30;;;;;;;12.69;100.00;102386.06;7390130;19;20410;-57
2021/08/24 00:39:24;;;;;;;6.40;3.50;;;;;;;12.65;100.00;102385.75;7398132;19;20416;-56
2021/08/24 00:41:53;;;;;;;6.87;4.10;;;;;;;12.78;100.00;102385.69;7385820;19;20467;-57
2021/08/24 00:44:23;;;;;;;4.50;3.20;;;;;;;12.72;100.00;102385.31;7397825;19;20380;-56
2021/08/24 00:46:54;;;;;;;11.87;3.10;;;;;;;12.71;100.00;102388.72;7389821;19;20487;-55
2021/08/24 00:49:28;;;;;;;8.40;3.80;;;;;;;12.61;100.00;102391.59;7397719;19;20466;-56
2021/08/24 00:52:03;;;;;;;9.73;3.63;;;;;;;12.62;100.00;102393.38;7365563;19;20462;-56
2021/08/24 00:54:35;;;;;;;9.13;4.80;;;;;;;12.71;100.00;102399.06;7396356;19;20387;-57
2021/08/24 00:57:08;;;;;;;32.60;17.50;;;;;;;12.81;100.00;102398.81;7365547;19;20422;-55
2021/08/24 00:59:38;;;;;;;7.10;5.67;;;;;;;12.77;100.00;102394.25;7398419;19;20862;-56
2021/08/24 01:02:08;;;;;;;10.20;6.37;;;;;;;12.76;100.00;102387.28;7364896;19;20399;-55
2021/08/24 01:04:38;;;;;;;7.53;3.17;;;;;;;12.55;100.00;102392.09;7398013;19;20412;-52
2021/08/24 01:07:12;;;;;;;6.80;3.37;;;;;;;12.49;100.00;102395.22;7389168;19;20502;-56
2021/08/24 01:09:49;;;;;;;7.60;4.40;;;;;;;12.59;100.00;102399.25;7399107;19;20453;-54
2021/08/24 01:12:29;;;;;;;8.27;3.90;;;;;;;12.48;100.00;102401.22;7391625;19;20482;-54
2021/08/24 01:15:06;;;;;;;6.90;4.27;;;;;;;12.54;100.00;102398.97;7398647;19;20475;-57
2021/08/24 01:17:39;;;;;;;7.13;3.97;;;;;;;12.53;100.00;102407.56;7379547;19;20705;-53
2021/08/24 01:20:31;;;;;;;8.20;4.23;;;;;;;12.40;100.00;102403.31;7401620;19;20448;-55
2021/08/24 01:23:42;;;;;;;9.83;4.23;;;;;;;12.41;100.00;102399.06;7368211;19;20423;-54
2021/08/24 01:26:18;;;;;;;6.90;3.97;;;;;;;12.41;100.00;102399.94;7405214;19;20412;-57
2021/08/24 01:28:58;;;;;;;5.80;4.37;;;;;;;12.37;100.00;102407.41;7373776;19;20474;-57
2021/08/24 01:31:56;;;;;;;6.80;4.60;;;;;;;12.37;100.00;102407.41;7373126;19;20415;-58
2021/08/24 01:34:45;;;;;;;8.30;5.00;;;;;;;12.41;100.00;102412.00;7404103;19;20468;-54
2021/08/24 01:37:21;;;;;;;13.30;5.37;;;;;;;12.35;100.00;102414.22;7377435;19;20407;-56
2021/08/24 01:39:53;;;;;;;9.03;5.20;;;;;;;12.38;100.00;102419.56;7408476;19;20917;-54
2021/08/24 01:42:25;;;;;;;7.30;4.53;;;;;;;12.31;100.00;102418.28;7392756;19;20478;-56
2021/08/24 01:45:00;;;;;;;13.80;6.07;;;;;;;12.38;100.00;102424.72;7405252;19;20704;-57
2021/08/24 01:47:37;;;;;;;8.67;4.90;;;;;;;12.27;100.00;102419.78;7374479;19;20458;-52
2021/08/24 01:50:11;;;;;;;10.73;6.10;;;;;;;12.35;100.00;102424.56;7405043;19;20913;-56
2021/08/24 01:52:46;;;;;;;7.03;4.60;;;;;;;12.33;100.00;102426.13;7388639;19;20417;-55
2021/08/24 01:55:19;;;;;;;13.30;5.20;;;;;;;12.35;100.00;102425.44;7405326;19;20886;-57
2021/08/24 01:57:53;;;;;;;8.27;5.23;;;;;;;12.41;100.00;102419.75;7371810;19;20402;-56
2021/08/24 02:00:23;;;;;;;10.60;5.70;;;;;;;12.31;100.00;102423.44;7399519;19;20445;-57
2021/08/24 02:02:55;;;;;;;8.57;6.30;;;;;;;12.31;100.00;102423.44;7371265;19;20877;-57
2021/08/24 02:05:27;;;;;;;10.57;6.93;;;;;;;12.36;100.00;102432.41;7403941;19;20830;-54
2021/08/24 02:08:02;;;;;;;10.20;6.10;;;;;;;12.29;100.00;102431.16;7374104;19;20482;-55
2021/08/24 02:10:32;;;;;;;7.50;6.03;;;;;;;12.28;100.00;102438.81;7407344;19;20462;-55
2021/08/24 02:13:04;;;;;;;14.80;7.00;;;;;;;12.29;100.00;102436.31;7371239;19;20667;-53
2021/08/24 02:15:43;;;;;;;10.13;5.80;;;;;;;12.24;100.00;102431.66;7403607;19;20391;-54
2021/08/24 02:18:17;;;;;;;9.23;6.43;;;;;;;12.23;100.00;102430.78;7367695;19;20401;-52
2021/08/24 02:20:51;;;;;;;8.93;6.40;;;;;;;12.23;100.00;102440.22;7403903;19;20391;-55
2021/08/24 02:23:26;;;;;;;10.17;4.70;;;;;;;12.19;100.00;102441.72;7371101;19;20426;-56
2021/08/24 02:25:59;;;;;;;8.57;6.07;;;;;;;12.13;100.00;102437.06;7403670;19;20443;-55
2021/08/24 02:28:36;;;;;;;11.30;6.93;;;;;;;12.10;100.00;102448.91;7375927;19;20475;-56
2021/08/24 02:31:10;;;;;;;14.07;5.90;;;;;;;12.11;100.00;102445.53;7401623;19;20456;-56
2021/08/24 02:33:44;;;;;;;17.00;6.67;;;;;;;12.19;100.00;102449.47;7371584;19;20402;-56
2021/08/24 02:36:15;;;;;;;11.50;6.27;;;;;;;12.17;100.00;102445.91;7403282;19;20639;-56
2021/08/24 02:38:54;;;;;;;13.53;6.60;;;;;;;12.19;100.00;102457.25;7368753;19;20757;-55
2021/08/24 02:41:36;;;;;;;10.37;7.63;;;;;;;12.16;100.00;102449.31;7398999;19;20407;-56
2021/08/24 02:44:12;;;;;;;10.47;7.30;;;;;;;12.02;100.00;102448.41;7402094;19;20483;-57
2021/08/24 02:46:44;;;;;;;13.40;8.03;;;;;;;12.02;100.00;102461.34;7372198;19;20408;-55
2021/08/24 02:49:17;;;;;;;13.43;8.30;;;;;;;12.01;100.00;102460.44;7402309;19;20413;-57
2021/08/24 02:51:48;;;;;;;13.47;8.30;;;;;;;11.97;100.00;102463.63;7384179;19;20401;-55
2021/08/24 02:54:23;;;;;;;10.97;8.13;;;;;;;12.26;100.00;102464.59;7403257;19;20384;-57
2021/08/24 02:56:54;;;;;;;10.33;6.87;;;;;;;12.28;100.00;102462.09;7371793;19;20462;-57
2021/08/24 02:59:24;;;;;;;11.90;7.30;;;;;;;12.21;100.00;102467.69;7404555;19;20465;-56
2021/08/24 03:01:53;;;;;;;12.43;7.00;;;;;;;12.23;100.00;102472.16;7377550;19;20463;-56
2021/08/24 03:04:23;;;;;;;12.47;7.30;;;;;;;12.20;100.00;102461.63;7400381;19;20384;-56
2021/08/24 03:06:59;;;;;;;12.20;7.20;;;;;;;12.27;100.00;102453.44;7371083;19;20420;-53
2021/08/24 03:09:34;;;;;;;10.17;7.00;;;;;;;12.20;100.00;102463.31;7402031;19;20379;-53
2021/08/24 03:12:13;;;;;;;12.53;8.07;;;;;;;12.11;100.00;102472.28;7377018;19;20684;-55
2021/08/24 03:14:47;;;;;;;14.07;6.37;;;;;;;12.09;100.00;102465.22;7401637;19;20392;-55
2021/08/24 03:17:20;;;;;;;13.80;6.80;;;;;;;12.15;100.00;102463.91;7376942;19;20470;-55
2021/08/24 03:19:51;;;;;;;13.50;7.30;;;;;;;12.13;100.00;102459.44;7401836;19;20383;-55
2021/08/24 03:22:21;;;;;;;10.77;7.40;;;;;;;12.22;100.00;102465.22;7385115;19;20479;-56
2021/08/24 03:24:53;;;;;;;11.40;8.20;;;;;;;12.23;100.00;102455.72;7400473;19;20394;-56
2021/08/24 03:27:23;;;;;;;17.20;8.33;;;;;;;12.18;100.00;102460.63;7374357;19;20772;-55
2021/08/24 03:30:04;;;;;;;20.23;8.47;;;;;;;12.11;100.00;102454.16;7401310;19;20453;-57
2021/08/24 03:32:33;;;;;;;15.43;10.37;;;;;;;12.13;100.00;102460.34;7373170;19;20406;-56
2021/08/24 03:35:03;;;;;;;13.57;8.73;;;;;;;12.11;100.00;102461.06;7400927;19;20861;-57
2021/08/24 03:37:32;;;;;;;14.13;9.40;;;;;;;12.19;100.00;102465.00;7373114;19;20458;-57
2021/08/24 03:40:05;;;;;;;15.77;9.80;;;;;;;12.29;100.00;102464.78;7401020;19;20606;-56
2021/08/24 03:42:34;;;;;;;15.43;9.20;;;;;;;12.14;100.00;102466.41;7372832;19;20403;-56
2021/08/24 03:45:05;;;;;;;23.93;11.00;;;;;;;12.18;100.00;102463.22;7399018;19;20475;-57
2021/08/24 03:47:34;;;;;;;15.80;11.10;;;;;;;12.13;100.00;102464.63;7362451;19;20470;-54
2021/08/24 03:50:04;;;;;;;17.37;10.20;;;;;;;12.17;100.00;102464.03;7400798;19;20477;-58
2021/08/24 03:52:34;;;;;;;18.13;10.40;;;;;;;12.25;100.00;102470.56;7371464;19;20467;-56
2021/08/24 03:55:08;;;;;;;16.33;11.17;;;;;;;12.19;100.00;102470.19;7400164;19;20468;-56
2021/08/24 03:57:37;;;;;;;17.73;11.80;;;;;;;12.14;100.00;102476.75;7393538;19;20483;-57
2021/08/24 04:00:08;;;;;;;18.50;12.13;;;;;;;12.06;100.00;102472.81;7401186;19;20396;-57
2021/08/24 04:02:38;;;;;;;18.87;12.73;;;;;;;12.04;100.00;102482.16;7372886;19;20407;-54
2021/08/24 04:05:09;;;;;;;22.53;13.67;;;;;;;11.96;100.00;102472.19;7398732;19;20418;-57
2021/08/24 04:07:39;;;;;;;26.13;14.43;;;;;;;11.97;100.00;102479.16;7372649;19;20469;-56
2021/08/24 04:10:12;;;;;;;23.97;12.50;;;;;;;11.99;100.00;102487.91;7400275;19;20388;-57
2021/08/24 04:12:42;;;;;;;17.70;13.17;;;;;;;12.08;100.00;102486.72;7370307;19;20403;-54
2021/08/24 04:15:12;;;;;;;23.70;13.23;;;;;;;12.08;100.00;102486.72;7399867;19;20474;-55
2021/08/24 04:17:42;;;;;;;18.93;12.80;;;;;;;12.05;100.00;102492.59;7368435;19;20727;-54
2021/08/24 04:20:15;;;;;;;20.37;13.07;;;;;;;12.09;100.00;102489.41;7399992;19;20734;-57
2021/08/24 04:22:47;;;;;;;21.20;13.20;;;;;;;11.99;100.00;102492.16;7368349;19;20395;-56
2021/08/24 04:25:20;;;;;;;20.37;12.63;;;;;;;11.97;100.00;102499.84;7398527;19;20717;-56
2021/08/24 04:27:50;;;;;;;16.93;10.50;;;;;;;12.06;100.00;102499.56;7370965;19;20407;-56
2021/08/24 04:30:20;;;;;;;18.40;11.40;;;;;;;12.01;100.00;102500.94;7399819;19;20687;-56
2021/08/24 04:32:49;;;;;;;18.30;12.03;;;;;;;12.04;100.00;102495.09;7367908;19;20395;-57
2021/08/24 04:35:21;;;;;;;22.63;11.87;;;;;;;12.01;100.00;102500.94;7399361;19;20402;-56
2021/08/24 04:37:51;;;;;;;17.30;12.40;;;;;;;12.00;100.00;102500.03;7371922;19;20477;-56
2021/08/24 04:40:23;;;;;;;16.60;11.50;;;;;;;11.92;100.00;102501.25;7399352;19;20410;-55
2021/08/24 04:42:52;;;;;;;19.23;11.37;;;;;;;11.85;100.00;102501.66;7368208;19;20750;-57
2021/08/24 04:45:22;;;;;;;18.70;10.40;;;;;;;11.86;100.00;102500.84;7397782;19;20890;-57
2021/08/24 04:47:51;;;;;;;22.20;11.53;;;;;;;11.82;100.00;102501.44;7369024;19;20423;-55
2021/08/24 04:50:22;;;;;;;17.33;11.97;;;;;;;11.84;100.00;102507.63;7399337;19;20387;-56
2021/08/24 04:52:51;;;;;;;21.13;11.43;;;;;;;11.86;100.00;102511.19;7391272;19;20487;-57
2021/08/24 04:55:23;;;;;;;20.20;12.90;;;;;;;11.85;100.00;102512.00;7398795;19;20837;-54
2021/08/24 04:57:53;;;;;;;21.47;11.90;;;;;;;11.92;100.00;102514.19;7364517;19;20506;-55
2021/08/24 05:00:23;;;;;;;20.43;12.27;;;;;;;11.90;100.00;102508.03;7403589;19;20420;-56
2021/08/24 05:02:52;;;;;;;21.23;12.00;;;;;;;12.00;100.00;102523.31;7365443;19;20463;-57
2021/08/24 05:05:22;;;;;;;19.47;11.33;;;;;;;11.97;100.00;102523.13;7397271;19;20392;-58
2021/08/24 05:07:52;;;;;;;19.70;11.20;;;;;;;11.95;100.00;102526.41;7370040;19;20853;-57
2021/08/24 05:10:25;;;;;;;14.97;10.33;;;;;;;11.95;100.00;102522.13;7398757;19;20683;-58
2021/08/24 05:12:54;;;;;;;21.93;11.90;;;;;;;11.99;100.00;102526.69;7369455;19;20455;-57
2021/08/24 05:15:24;;;;;;;15.53;10.00;;;;;;;12.00;100.00;102531.06;7397611;19;20842;-56
2021/08/24 05:17:54;;;;;;;15.00;10.07;;;;;;;12.07;100.00;102528.91;7368435;19;20399;-58
2021/08/24 05:20:24;;;;;;;15.40;10.17;;;;;;;12.15;100.00;102535.47;7398781;19;20412;-57
2021/08/24 05:22:57;;;;;;;18.10;10.40;;;;;;;12.20;100.00;102538.38;7389562;19;20431;-57
2021/08/24 05:25:29;;;;;;;13.90;9.90;;;;;;;12.21;100.00;102538.44;7396732;19;20918;-55
2021/08/24 05:27:59;;;;;;;14.80;9.80;;;;;;;12.17;100.00;102539.06;7389579;19;20487;-57
2021/08/24 05:30:29;;;;;;;17.80;9.60;;;;;;;12.29;100.00;102545.00;7398420;19;20672;-56
2021/08/24 05:33:00;;;;;;;13.00;9.07;;;;;;;12.39;100.00;102537.81;7367221;19;20487;-57
2021/08/24 05:35:29;;;;;;;13.67;8.63;;;;;;;12.40;100.00;102537.00;7397397;19;20391;-58
2021/08/24 05:37:59;;;;;;;12.20;8.03;;;;;;;12.46;100.00;102539.09;7387772;19;20932;-58
2021/08/24 05:40:31;;;;;;;15.40;7.70;;;;;;;12.53;100.00;102543.88;7398220;19;20938;-56
2021/08/24 05:43:01;;;;;;;13.90;8.40;;;;;;;12.66;100.00;102546.41;7386865;19;21034;-57
2021/08/24 05:45:30;;;;;;;11.77;8.03;;;;;;;12.78;100.00;102537.59;7396481;19;20406;-57
2021/08/24 05:48:00;;;;;;;18.43;7.97;;;;;;;12.81;100.00;102540.38;7386677;19;20679;-56
2021/08/24 05:50:29;;;;;;;12.10;7.37;;;;;;;12.86;100.00;102540.69;7397688;19;20874;-58
2021/08/24 05:52:59;;;;;;;10.40;7.83;;;;;;;12.92;100.00;102538.47;7389936;19;20415;-58
2021/08/24 05:55:31;;;;;;;10.20;7.10;;;;;;;12.93;100.00;102535.06;7396731;19;20392;-57
2021/08/24 05:58:00;;;;;;;11.50;6.30;;;;;;;13.07;100.00;102549.72;7385170;19;20498;-55
2021/08/24 06:00:30;;;;;;;10.97;6.90;;;;;;;13.20;100.00;102543.59;7397614;19;20388;-56
2021/08/24 06:02:59;;;;;;;9.90;6.80;;;;;;;13.35;100.00;102535.81;7384157;19;20411;-57
2021/08/24 06:05:29;;;;;;;9.30;6.40;;;;;;;13.42;100.00;102530.97;7396781;19;20408;-56
2021/08/24 06:07:58;;;;;;;14.90;6.90;;;;;;;13.48;100.00;102528.78;7398089;19;20487;-55
2021/08/24 06:10:30;;;;;;;9.70;6.03;;;;;;;13.60;100.00;102531.22;7404593;19;20848;-58
2021/08/24 06:13:00;;;;;;;8.30;5.83;;;;;;;13.56;100.00;102524.97;7397100;19;20403;-55
2021/08/24 06:15:29;;;;;;;7.50;5.23;;;;;;;13.61;100.00;102528.72;7403892;19;20764;-55
2021/08/24 06:17:59;;;;;;;11.80;6.60;;;;;;;13.80;100.00;102534.94;7374330;19;20479;-57
2021/08/24 06:20:28;;;;;;;26.53;17.20;;;;;;;13.86;100.00;102534.41;7407579;19;20396;-57
2021/08/24 06:22:58;;;;;;;16.90;9.57;;;;;;;13.91;100.00;102532.97;7396741;19;20415;-56
2021/08/24 06:25:27;;;;;;;27.13;15.67;;;;;;;13.98;100.00;102529.91;7402550;19;20451;-57
2021/08/24 06:27:59;;;;;;;13.07;8.57;;;;;;;14.02;100.00;102528.38;7397396;19;20419;-58
2021/08/24 06:30:29;;;;;;;20.63;12.03;;;;;;;14.11;100.00;102525.38;7404667;19;20906;-57
2021/08/24 06:32:59;;;;;;;17.43;11.33;;;;;;;14.16;100.00;102535.19;7375430;19;20872;-57
2021/08/24 06:35:28;;;;;;;18.30;10.80;;;;;;;14.36;100.00;102530.22;7402996;19;20719;-56
2021/08/24 06:37:58;;;;;;;10.73;5.37;;;;;;;14.33;100.00;102532.66;7397274;19;20423;-55
2021/08/24 06:40:27;;;;;;;12.83;7.60;;;;;;;14.42;100.00;102525.34;7403633;19;20392;-55
2021/08/24 06:43:00;;;;;;;13.90;7.80;;;;;;;14.55;100.00;102531.19;7386207;19;20423;-56
2021/08/24 06:45:31;;;;;;;8.63;5.57;;;;;;;14.62;100.00;102529.84;7402461;19;20771;-57
2021/08/24 06:48:01;;;;;;;6.70;4.70;;;;;;;14.64;100.00;102526.50;7387857;19;20431;-58
2021/08/24 06:50:32;;;;;;;10.73;5.13;;;;;;;14.66;100.00;102527.47;7405433;19;20400;-57
2021/08/24 06:53:02;;;;;;;9.60;5.50;;;;;;;14.80;100.00;102529.94;7385282;19;20722;-58
2021/08/24 06:55:33;;;;;;;9.53;5.00;;;;;;;14.88;100.00;102533.84;7405456;19;20854;-50
2021/08/24 06:58:05;;;;;;;7.93;4.90;;;;;;;15.03;100.00;102538.94;7366733;19;20447;-56
2021/08/24 07:00:35;;;;;;;9.80;5.60;;;;;;;15.13;100.00;102542.94;7402442;19;20841;-58
2021/08/24 07:03:05;;;;;;;10.00;5.07;;;;;;;15.16;100.00;102539.56;7381795;19;20765;-56
2021/08/24 07:05:36;;;;;;;14.73;5.77;;;;;;;15.29;100.00;102547.22;7405446;19;20412;-54
2021/08/24 07:08:06;;;;;;;8.13;5.20;;;;;;;15.21;100.00;102544.22;7371964;19;20498;-57
2021/08/24 07:10:36;;;;;;;7.90;4.30;;;;;;;15.27;100.00;102546.22;7403247;19;20384;-54
2021/08/24 07:13:08;;;;;;;8.17;4.87;;;;;;;15.38;100.00;102550.25;7371297;19;20476;-57
2021/08/24 07:15:38;;;;;;;8.13;5.40;;;;;;;15.56;100.00;102545.88;7401543;19;20384;-56
2021/08/24 07:18:08;;;;;;;9.30;4.87;;;;;;;15.56;100.00;102543.28;7382160;19;20722;-57
2021/08/24 07:20:38;;;;;;;9.97;5.53;;;;;;;15.59;100.00;102540.84;7406206;19;20398;-54
2021/08/24 07:23:07;;;;;;;9.10;5.07;;;;;;;15.56;100.00;102538.09;7379607;19;20425;-55
2021/08/24 07:25:39;;;;;;;7.60;3.90;;;;;;;15.61;100.00;102544.41;7400972;19;20411;-55
2021/08/24 07:28:12;;;;;;;14.47;7.37;;;;;;;15.61;100.00;102552.22;7369754;19;20719;-56
2021/08/24 07:30:44;;;;;;;8.37;4.60;;;;;;;15.75;100.00;102555.50;7401953;19;20395;-54
2021/08/24 07:33:14;;;;;;;8.47;5.27;;;;;;;15.74;100.00;102559.81;7394832;19;20893;-54
2021/08/24 07:35:44;;;;;;;12.60;6.60;;;;;;;15.73;100.00;102563.22;7401232;19;20387;-57
2021/08/24 07:38:13;;;;;;;8.33;5.37;;;;;;;15.76;100.00;102565.09;7372355;19;20455;-56
2021/08/24 07:40:43;;;;;;;9.10;5.63;;;;;;;15.86;100.00;102558.63;7401587;19;20451;-57
2021/08/24 07:43:16;;;;;;;9.73;5.47;;;;;;;15.94;100.00;102554.72;7372773;19;20743;-58
2021/08/24 07:45:47;;;;;;;7.90;5.00;;;;;;;16.00;100.00;102554.13;7401913;19;20463;-54
2021/08/24 07:48:18;;;;;;;11.70;6.67;;;;;;;16.14;100.00;102558.28;7391846;19;20430;-58
2021/08/24 07:50:48;;;;;;;7.97;4.53;;;;;;;16.23;100.00;102569.94;7406369;19;20400;-57
2021/08/24 07:53:19;;;;;;;8.20;4.33;;;;;;;16.27;100.00;102570.19;7395599;19;20430;-58
2021/08/24 07:55:48;;;;;;;7.80;5.00;;;;;;;16.27;100.00;102562.38;7400983;19;20456;-57
2021/08/24 07:58:20;;;;;;;18.97;6.73;;;;;;;16.30;100.00;102565.09;7372924;19;20471;-57
2021/08/24 08:00:50;;;;;;;8.27;4.00;;;;;;;16.35;100.00;102561.81;7400932;19;20383;-55
2021/08/24 08:03:21;;;;;;;8.23;4.60;;;;;;;16.42;100.00;102561.28;7366562;19;20399;-55
2021/08/24 08:05:51;;;;;;;7.07;4.00;;;;;;;16.43;100.00;102563.97;7399894;19;20834;-56
2021/08/24 08:08:20;;;;;;;8.40;3.10;;;;;;;16.59;100.00;102557.75;7371920;19;20403;-57
2021/08/24 08:10:50;;;;;;;11.00;2.80;;;;;;;16.60;100.00;102561.22;7402480;19;20399;-55
2021/08/24 08:13:22;;;;;;;5.43;2.97;;;;;;;16.73;100.00;102555.75;7369429;19;20403;-56
2021/08/24 08:15:52;;;;;;;6.30;2.80;;;;;;;16.90;100.00;102554.72;7399913;19;20717;-56
2021/08/24 08:18:21;;;;;;;5.17;3.03;;;;;;;16.96;100.00;102547.16;7370823;19;20421;-56
2021/08/24 08:20:51;;;;;;;8.47;3.30;;;;;;;17.01;100.00;102540.44;7403142;19;20879;-56
2021/08/24 08:23:23;;;;;;;5.60;3.20;;;;;;;17.04;100.00;102551.03;7374398;19;20471;-57
2021/08/24 08:25:53;;;;;;;5.30;3.50;;;;;;;17.16;100.00;102541.97;7399680;19;20398;-55
2021/08/24 08:28:25;;;;;;;8.97;4.73;;;;;;;17.24;100.00;102538.84;7367899;19;20411;-57
2021/08/24 08:30:54;;;;;;;6.03;3.30;;;;;;;17.31;100.00;102533.88;7399716;19;20658;-58
2021/08/24 08:33:24;;;;;;;7.47;3.67;;;;;;;17.36;100.00;102542.81;7372532;19;20471;-52
2021/08/24 08:35:53;;;;;;;4.67;2.40;;;;;;;17.46;100.00;102533.63;7399075;19;20458;-57
2021/08/24 08:38:23;;;;;;;7.10;2.40;;;;;;;17.40;100.00;102518.63;7370413;19;20408;-58
2021/08/24 08:40:57;;;;;;;4.97;2.90;;;;;;;17.47;100.00;102519.75;7399410;19;20405;-54
2021/08/24 08:43:45;;;;;;;3.93;2.63;;;;;;;17.52;100.00;102515.63;7395378;19;20419;-56
2021/08/24 08:46:25;;;;;;;4.17;2.20;;;;;;;17.62;100.00;102515.19;7398545;19;20405;-56
2021/08/24 08:49:06;;;;;;;6.07;2.87;;;;;;;17.65;100.00;102520.50;7399660;19;20460;-57
2021/08/24 08:51:59;;;;;;;4.27;2.50;;;;;;;17.71;100.00;102524.22;7366825;19;20399;-57
2021/08/24 08:54:41;;;;;;;5.53;3.10;;;;;;;17.79;100.00;102517.59;7398172;19;20442;-54
2021/08/24 08:57:15;;;;;;;5.37;3.10;;;;;;;17.87;100.00;102521.38;7367393;19;20402;-58
2021/08/24 08:59:50;;;;;;;8.40;3.67;;;;;;;17.79;100.00;102510.63;7398152;19;20396;-58
2021/08/24 09:02:32;;;;;;;6.90;3.90;;;;;;;18.01;100.00;102508.88;7373206;19;20417;-56
2021/08/24 09:05:07;;;;;;;9.57;4.23;;;;;;;17.97;100.00;102516.50;7400838;19;20403;-58
2021/08/24 09:07:41;;;;;;;5.40;3.07;;;;;;;18.03;100.00;102516.75;7394409;19;20490;-57
2021/08/24 09:10:14;;;;;;;5.37;2.67;;;;;;;18.02;100.00;102518.50;7399754;19;20451;-57
2021/08/24 09:12:47;;;;;;;6.33;3.50;;;;;;;18.10;100.00;102510.97;7394612;19;20415;-58
2021/08/24 09:15:21;;;;;;;4.03;2.47;;;;;;;18.12;100.00;102516.25;7399824;19;20463;-57
2021/08/24 09:17:52;;;;;;;5.13;2.40;;;;;;;18.25;100.00;102522.84;7394614;19;20709;-58
2021/08/24 09:20:27;;;;;;;6.63;2.70;;;;;;;18.30;100.00;102516.97;7398775;19;20396;-58
2021/08/24 09:22:57;;;;;;;21.80;7.27;;;;;;;18.35;100.00;102514.50;7365191;19;20737;-55
2021/08/24 09:25:31;;;;;;;5.37;2.23;;;;;;;18.27;100.00;102511.63;7399480;19;20680;-57
2021/08/24 09:28:04;;;;;;;5.43;2.50;;;;;;;18.19;100.00;102519.16;7376146;19;20449;-57
2021/08/24 09:30:37;;;;;;;11.17;4.80;;;;;;;18.32;100.00;102522.25;7403312;19;20386;-58
2021/08/24 09:33:10;;;;;;;9.83;4.13;;;;;;;18.40;100.00;102520.81;7378626;19;20559;-58
2021/08/24 09:35:42;;;;;;;6.00;2.87;;;;;;;18.33;100.00;102522.31;7397256;19;20375;-57
2021/08/24 09:38:16;;;;;;;7.03;3.73;;;;;;;18.38;100.00;102508.50;7371760;19;20403;-57
2021/08/24 09:40:48;;;;;;;8.07;3.77;;;;;;;18.62;100.00;102519.00;7399768;19;20919;-58
2021/08/24 09:43:28;;;;;;;5.43;3.20;;;;;;;18.79;100.00;102513.47;7394349;19;20787;-58
2021/08/24 09:46:03;;;;;;;5.63;2.80;;;;;;;18.97;100.00;102513.25;7404798;19;20443;-57
2021/08/24 09:48:35;;;;;;;6.43;3.20;;;;;;;19.12;100.00;102510.31;7376193;19;20438;-55
2021/08/24 09:51:20;;;;;;;4.87;2.93;;;;;;;19.21;100.00;102502.75;7404811;19;20455;-58
2021/08/24 09:53:56;;;;;;;5.83;2.70;;;;;;;19.22;100.00;102496.69;7380068;19;20687;-58
2021/08/24 09:56:33;;;;;;;9.70;5.10;;;;;;;19.05;100.00;102501.34;7403797;19;20442;-59
2021/08/24 09:59:03;;;;;;;6.03;2.90;;;;;;;19.10;100.00;102496.25;7404450;19;20475;-57
2021/08/24 10:01:51;;;;;;;5.47;3.47;;;;;;;19.18;100.00;102494.81;7400028;19;20499;-56
2021/08/24 10:04:21;;;;;;;5.70;3.20;;;;;;;19.24;100.00;102495.03;7404798;19;20392;-57
2021/08/24 10:07:02;;;;;;;14.40;7.63;;;;;;;19.47;100.00;102496.63;7399649;19;20940;-56
2021/08/24 10:09:34;;;;;;;6.37;3.23;;;;;;;19.22;100.00;102491.44;7404672;19;20632;-57
2021/08/24 10:12:23;;;;;;;9.17;5.20;;;;;;;19.16;100.00;102506.94;7402060;19;20407;-57
2021/08/24 10:14:55;;;;;;;8.83;4.20;;;;;;;19.25;100.00;102496.78;7404437;19;20463;-56
2021/08/24 10:17:35;;;;;;;17.50;7.60;;;;;;;19.34;100.00;102495.31;7398348;19;20429;-56
2021/08/24 10:20:06;;;;;;;5.23;3.17;;;;;;;19.43;100.00;102491.25;7403925;19;20396;-57
2021/08/24 10:22:39;;;;;;;7.00;4.10;;;;;;;19.63;100.00;102495.38;7376624;19;20439;-58
2021/08/24 10:25:11;;;;;;;5.67;2.60;;;;;;;19.68;100.00;102494.66;7404109;19;20399;-58
2021/08/24 10:27:45;;;;;;;6.83;3.20;;;;;;;19.76;100.00;102492.28;7375457;19;20491;-56
2021/08/24 10:30:19;;;;;;;9.63;3.50;;;;;;;19.69;100.00;102482.47;7403367;19;20447;-58
2021/08/24 10:32:57;;;;;;;14.23;5.47;;;;;;;19.65;100.00;102480.59;7362217;19;20411;-55
2021/08/24 10:35:29;;;;;;;6.30;3.80;;;;;;;19.45;100.00;102483.47;7403183;19;20447;-56
2021/08/24 10:37:58;;;;;;;10.20;5.53;;;;;;;19.54;100.00;102475.91;7368658;19;20424;-55
2021/08/24 10:40:31;;;;;;;11.97;6.80;;;;;;;19.55;100.00;102488.13;7403419;19;20711;-56
2021/08/24 10:43:20;;;;;;;6.33;3.60;;;;;;;19.70;100.00;102486.88;7347990;19;20728;-57
2021/08/24 10:46:08;;;;;;;10.50;5.33;;;;;;;19.99;100.00;102480.78;7402875;19;20465;-58
2021/08/24 10:48:41;;;;;;;11.30;7.63;;;;;;;20.19;100.00;102483.97;7348740;19;20971;-58
2021/08/24 10:51:15;;;;;;;22.23;11.83;;;;;;;20.21;100.00;102477.06;7402722;19;20423;-55
2021/08/24 10:53:50;;;;;;;5.83;2.90;;;;;;;20.23;100.00;102480.59;7373288;19;20494;-57
2021/08/24 10:56:31;;;;;;;9.03;5.30;;;;;;;20.34;100.00;102473.94;7406280;19;20395;-58
2021/08/24 10:59:05;;;;;;;4.60;2.87;;;;;;;20.08;100.00;102481.94;7406266;19;20510;-58
2021/08/24 11:01:37;;;;;;;8.20;3.87;;;;;;;20.34;100.00;102478.28;7386308;19;20742;-56
2021/08/24 11:04:17;;;;;;;5.87;3.03;;;;;;;20.34;100.00;102479.19;7405716;19;20729;-58
2021/08/24 11:06:55;;;;;;;6.10;3.20;;;;;;;20.22;100.00;102481.44;7376641;19;20853;-57
2021/08/24 11:09:34;;;;;;;5.73;3.20;;;;;;;20.32;100.00;102480.88;7404260;19;20464;-57
2021/08/24 11:12:12;;;;;;;6.97;3.00;;;;;;;20.22;100.00;102474.50;7395630;19;20912;-57
2021/08/24 11:14:49;;;;;;;10.43;5.40;;;;;;;20.46;100.00;102477.75;7406569;19;20395;-58
2021/08/24 11:17:25;;;;;;;5.10;2.70;;;;;;;20.44;100.00;102477.72;7374379;19;20478;-57
2021/08/24 11:20:21;;;;;;;5.60;3.27;;;;;;;20.59;100.00;102479.88;7405462;19;20480;-54
2021/08/24 11:23:03;;;;;;;4.97;2.70;;;;;;;20.59;100.00;102482.50;7364918;19;20447;-57
2021/08/24 11:25:38;;;;;;;10.43;6.00;;;;;;;20.78;100.00;102475.13;7404662;19;20744;-54
2021/08/24 11:28:11;;;;;;;8.43;3.17;;;;;;;20.35;100.00;102474.81;7396611;19;20461;-55
2021/08/24 11:30:43;;;;;;;6.80;3.67;;;;;;;20.10;100.00;102490.72;7405786;19;20451;-58
2021/08/24 11:33:17;;;;;;;7.40;3.20;;;;;;;20.02;100.00;102480.84;7396563;19;20439;-56
2021/08/24 11:35:54;;;;;;;5.90;2.43;;;;;;;20.16;100.00;102483.88;7404891;19;20711;-57
2021/08/24 11:38:28;;;;;;;11.93;3.20;;;;;;;20.26;100.00;102475.47;7371677;19;20427;-55